sensor_id;sensor_type;location;lat;lon;timestamp;P1;durP1;ratioP1;P2;durP2;ratioP2
72408;SDS011;60402;48.082;11.628;2024-03-06T00:00:04;18.40;;;8.60;;
72408;SDS011;60402;48.082;11.628;2024-03-06T00:02:55;16.60;;;8.15;;
72408;SDS011;60402;48.082;11.628;2024-03-06T00:05:41;17.35;;;7.82;;
72408;SDS011;60402;48.082;11.628;2024-03-06T00:08:26;18.48;;;8.07;;
72408;SDS011;60402;48.082;11.628;2024-03-06T00:11:13;17.75;;;8.05;;
72408;SDS011;60402;48.082;11.628;2024-03-06T00:13:59;18.45;;;8.20;;
72408;SDS011;60402;48.082;11.628;2024-03-06T00:16:45;18.67;;;8.02;;
72408;SDS011;60402;48.082;11.628;2024-03-06T00:19:30;19.25;;;8.93;;
72408;SDS011;60402;48.082;11.628;2024-03-06T00:22:16;20.30;;;8.27;;
72408;SDS011;60402;48.082;11.628;2024-03-06T00:25:02;18.98;;;8.02;;
72408;SDS011;60402;48.082;11.628;2024-03-06T00:27:48;18.25;;;7.47;;
72408;SDS011;60402;48.082;11.628;2024-03-06T00:30:34;17.00;;;7.80;;
72408;SDS011;60402;48.082;11.628;2024-03-06T00:33:19;18.58;;;8.75;;
72408;SDS011;60402;48.082;11.628;2024-03-06T00:36:05;17.10;;;7.60;;
72408;SDS011;60402;48.082;11.628;2024-03-06T00:38:51;18.83;;;8.05;;
72408;SDS011;60402;48.082;11.628;2024-03-06T00:41:37;19.15;;;7.75;;
72408;SDS011;60402;48.082;11.628;2024-03-06T00:44:23;19.73;;;7.78;;
72408;SDS011;60402;48.082;11.628;2024-03-06T00:47:08;14.50;;;7.28;;
72408;SDS011;60402;48.082;11.628;2024-03-06T00:49:54;16.90;;;7.10;;
72408;SDS011;60402;48.082;11.628;2024-03-06T00:52:40;16.73;;;7.45;;
72408;SDS011;60402;48.082;11.628;2024-03-06T00:55:26;16.45;;;7.10;;
72408;SDS011;60402;48.082;11.628;2024-03-06T00:58:12;17.35;;;7.25;;
72408;SDS011;60402;48.082;11.628;2024-03-06T01:00:57;17.33;;;7.75;;
72408;SDS011;60402;48.082;11.628;2024-03-06T01:03:43;16.60;;;7.82;;
72408;SDS011;60402;48.082;11.628;2024-03-06T01:06:29;17.27;;;7.50;;
72408;SDS011;60402;48.082;11.628;2024-03-06T01:09:15;16.77;;;7.35;;
72408;SDS011;60402;48.082;11.628;2024-03-06T01:12:00;15.43;;;7.07;;
72408;SDS011;60402;48.082;11.628;2024-03-06T01:14:46;19.20;;;8.07;;
72408;SDS011;60402;48.082;11.628;2024-03-06T01:17:31;16.08;;;7.03;;
72408;SDS011;60402;48.082;11.628;2024-03-06T01:20:17;17.25;;;7.13;;
72408;SDS011;60402;48.082;11.628;2024-03-06T01:23:03;17.17;;;7.53;;
72408;SDS011;60402;48.082;11.628;2024-03-06T01:25:49;16.45;;;7.45;;
72408;SDS011;60402;48.082;11.628;2024-03-06T01:28:35;16.38;;;6.80;;
72408;SDS011;60402;48.082;11.628;2024-03-06T01:31:22;18.52;;;6.97;;
72408;SDS011;60402;48.082;11.628;2024-03-06T01:34:07;14.52;;;6.70;;
72408;SDS011;60402;48.082;11.628;2024-03-06T01:36:54;18.23;;;8.05;;
72408;SDS011;60402;48.082;11.628;2024-03-06T01:39:39;19.15;;;8.05;;
72408;SDS011;60402;48.082;11.628;2024-03-06T01:42:25;19.85;;;8.10;;
72408;SDS011;60402;48.082;11.628;2024-03-06T01:45:11;15.23;;;7.28;;
72408;SDS011;60402;48.082;11.628;2024-03-06T01:47:56;17.13;;;7.88;;
72408;SDS011;60402;48.082;11.628;2024-03-06T01:50:42;19.40;;;8.27;;
72408;SDS011;60402;48.082;11.628;2024-03-06T01:53:29;18.58;;;8.57;;
72408;SDS011;60402;48.082;11.628;2024-03-06T01:56:16;16.90;;;8.15;;
72408;SDS011;60402;48.082;11.628;2024-03-06T01:59:02;20.75;;;8.80;;
72408;SDS011;60402;48.082;11.628;2024-03-06T02:01:49;19.95;;;8.57;;
72408;SDS011;60402;48.082;11.628;2024-03-06T02:04:40;22.00;;;8.73;;
72408;SDS011;60402;48.082;11.628;2024-03-06T02:07:26;22.67;;;9.05;;
72408;SDS011;60402;48.082;11.628;2024-03-06T02:10:14;23.63;;;9.38;;
72408;SDS011;60402;48.082;11.628;2024-03-06T02:13:00;21.00;;;8.95;;
72408;SDS011;60402;48.082;11.628;2024-03-06T02:15:45;20.88;;;9.38;;
72408;SDS011;60402;48.082;11.628;2024-03-06T02:18:31;12.02;;;5.32;;
72408;SDS011;60402;48.082;11.628;2024-03-06T02:21:17;4.97;;;1.88;;
72408;SDS011;60402;48.082;11.628;2024-03-06T02:24:03;4.15;;;1.77;;
72408;SDS011;60402;48.082;11.628;2024-03-06T02:26:48;4.55;;;1.80;;
72408;SDS011;60402;48.082;11.628;2024-03-06T02:29:34;5.15;;;1.77;;
72408;SDS011;60402;48.082;11.628;2024-03-06T02:32:20;2.95;;;1.27;;
72408;SDS011;60402;48.082;11.628;2024-03-06T02:35:07;3.00;;;1.20;;
72408;SDS011;60402;48.082;11.628;2024-03-06T02:37:53;2.53;;;1.20;;
72408;SDS011;60402;48.082;11.628;2024-03-06T02:40:43;2.50;;;0.80;;
72408;SDS011;60402;48.082;11.628;2024-03-06T02:43:29;2.22;;;0.95;;
72408;SDS011;60402;48.082;11.628;2024-03-06T02:46:15;3.08;;;1.00;;
72408;SDS011;60402;48.082;11.628;2024-03-06T02:49:01;2.28;;;1.00;;
72408;SDS011;60402;48.082;11.628;2024-03-06T02:51:46;1.98;;;0.73;;
72408;SDS011;60402;48.082;11.628;2024-03-06T02:54:32;1.42;;;0.60;;
72408;SDS011;60402;48.082;11.628;2024-03-06T02:57:18;2.47;;;1.10;;
72408;SDS011;60402;48.082;11.628;2024-03-06T03:00:04;1.73;;;0.80;;
72408;SDS011;60402;48.082;11.628;2024-03-06T03:02:50;1.40;;;0.80;;
72408;SDS011;60402;48.082;11.628;2024-03-06T03:05:35;2.35;;;1.20;;
72408;SDS011;60402;48.082;11.628;2024-03-06T03:08:21;2.63;;;0.82;;
72408;SDS011;60402;48.082;11.628;2024-03-06T03:11:07;1.17;;;0.73;;
72408;SDS011;60402;48.082;11.628;2024-03-06T03:13:53;1.90;;;0.77;;
72408;SDS011;60402;48.082;11.628;2024-03-06T03:16:39;2.35;;;0.90;;
72408;SDS011;60402;48.082;11.628;2024-03-06T03:19:24;2.97;;;1.10;;
72408;SDS011;60402;48.082;11.628;2024-03-06T03:22:10;3.03;;;1.42;;
72408;SDS011;60402;48.082;11.628;2024-03-06T03:24:55;3.20;;;1.20;;
72408;SDS011;60402;48.082;11.628;2024-03-06T03:27:41;1.80;;;1.00;;
72408;SDS011;60402;48.082;11.628;2024-03-06T03:30:29;2.20;;;1.00;;
72408;SDS011;60402;48.082;11.628;2024-03-06T03:33:14;2.72;;;1.10;;
72408;SDS011;60402;48.082;11.628;2024-03-06T03:36:00;3.95;;;1.10;;
72408;SDS011;60402;48.082;11.628;2024-03-06T03:38:46;2.33;;;1.05;;
72408;SDS011;60402;48.082;11.628;2024-03-06T03:41:32;2.53;;;0.90;;
72408;SDS011;60402;48.082;11.628;2024-03-06T03:44:18;2.60;;;0.90;;
72408;SDS011;60402;48.082;11.628;2024-03-06T03:47:04;2.28;;;1.13;;
72408;SDS011;60402;48.082;11.628;2024-03-06T03:49:50;2.83;;;1.00;;
72408;SDS011;60402;48.082;11.628;2024-03-06T03:52:36;2.13;;;0.77;;
72408;SDS011;60402;48.082;11.628;2024-03-06T03:55:27;2.10;;;0.90;;
72408;SDS011;60402;48.082;11.628;2024-03-06T03:58:12;2.30;;;0.88;;
72408;SDS011;60402;48.082;11.628;2024-03-06T04:00:58;2.80;;;0.88;;
72408;SDS011;60402;48.082;11.628;2024-03-06T04:03:44;2.42;;;0.90;;
72408;SDS011;60402;48.082;11.628;2024-03-06T04:06:30;1.90;;;1.00;;
72408;SDS011;60402;48.082;11.628;2024-03-06T04:09:15;2.92;;;1.02;;
72408;SDS011;60402;48.082;11.628;2024-03-06T04:12:02;2.92;;;1.20;;
72408;SDS011;60402;48.082;11.628;2024-03-06T04:14:49;2.03;;;0.88;;
72408;SDS011;60402;48.082;11.628;2024-03-06T04:17:34;2.30;;;0.90;;
72408;SDS011;60402;48.082;11.628;2024-03-06T04:20:21;2.53;;;1.02;;
72408;SDS011;60402;48.082;11.628;2024-03-06T04:23:07;1.98;;;0.90;;
72408;SDS011;60402;48.082;11.628;2024-03-06T04:25:53;3.20;;;0.95;;
72408;SDS011;60402;48.082;11.628;2024-03-06T04:28:38;2.03;;;0.93;;
72408;SDS011;60402;48.082;11.628;2024-03-06T04:31:24;1.80;;;0.82;;
72408;SDS011;60402;48.082;11.628;2024-03-06T04:34:10;2.30;;;1.10;;
72408;SDS011;60402;48.082;11.628;2024-03-06T04:36:56;3.13;;;1.00;;
72408;SDS011;60402;48.082;11.628;2024-03-06T04:39:41;2.10;;;0.98;;
72408;SDS011;60402;48.082;11.628;2024-03-06T04:42:27;2.40;;;0.98;;
72408;SDS011;60402;48.082;11.628;2024-03-06T04:45:16;1.77;;;0.88;;
72408;SDS011;60402;48.082;11.628;2024-03-06T04:48:02;2.97;;;1.25;;
72408;SDS011;60402;48.082;11.628;2024-03-06T04:50:48;3.03;;;1.02;;
72408;SDS011;60402;48.082;11.628;2024-03-06T04:53:34;3.10;;;1.17;;
72408;SDS011;60402;48.082;11.628;2024-03-06T04:56:20;2.50;;;1.10;;
72408;SDS011;60402;48.082;11.628;2024-03-06T04:59:07;2.75;;;1.13;;
72408;SDS011;60402;48.082;11.628;2024-03-06T05:01:52;2.47;;;1.08;;
72408;SDS011;60402;48.082;11.628;2024-03-06T05:04:38;3.00;;;1.10;;
72408;SDS011;60402;48.082;11.628;2024-03-06T05:07:24;3.28;;;1.27;;
72408;SDS011;60402;48.082;11.628;2024-03-06T05:10:09;2.28;;;1.05;;
72408;SDS011;60402;48.082;11.628;2024-03-06T05:12:55;2.97;;;1.23;;
72408;SDS011;60402;48.082;11.628;2024-03-06T05:15:41;2.63;;;1.00;;
72408;SDS011;60402;48.082;11.628;2024-03-06T05:18:27;2.65;;;1.17;;
72408;SDS011;60402;48.082;11.628;2024-03-06T05:21:13;2.42;;;1.02;;
72408;SDS011;60402;48.082;11.628;2024-03-06T05:23:59;2.75;;;1.08;;
72408;SDS011;60402;48.082;11.628;2024-03-06T05:26:44;2.97;;;1.20;;
72408;SDS011;60402;48.082;11.628;2024-03-06T05:29:30;2.05;;;0.88;;
72408;SDS011;60402;48.082;11.628;2024-03-06T05:32:16;2.67;;;1.20;;
72408;SDS011;60402;48.082;11.628;2024-03-06T05:35:01;2.10;;;0.85;;
72408;SDS011;60402;48.082;11.628;2024-03-06T05:37:49;2.20;;;0.98;;
72408;SDS011;60402;48.082;11.628;2024-03-06T05:40:34;1.63;;;1.02;;
72408;SDS011;60402;48.082;11.628;2024-03-06T05:43:22;1.30;;;0.80;;
72408;SDS011;60402;48.082;11.628;2024-03-06T05:46:08;1.70;;;0.68;;
72408;SDS011;60402;48.082;11.628;2024-03-06T05:48:53;1.52;;;0.70;;
72408;SDS011;60402;48.082;11.628;2024-03-06T05:51:39;1.05;;;0.73;;
72408;SDS011;60402;48.082;11.628;2024-03-06T05:54:25;2.13;;;0.82;;
72408;SDS011;60402;48.082;11.628;2024-03-06T05:57:10;2.33;;;0.98;;
72408;SDS011;60402;48.082;11.628;2024-03-06T05:59:56;2.45;;;1.08;;
72408;SDS011;60402;48.082;11.628;2024-03-06T06:02:42;2.15;;;0.95;;
72408;SDS011;60402;48.082;11.628;2024-03-06T06:05:27;1.90;;;0.82;;
72408;SDS011;60402;48.082;11.628;2024-03-06T06:08:13;1.50;;;0.70;;
72408;SDS011;60402;48.082;11.628;2024-03-06T06:10:59;2.90;;;1.00;;
72408;SDS011;60402;48.082;11.628;2024-03-06T06:13:44;2.60;;;0.75;;
72408;SDS011;60402;48.082;11.628;2024-03-06T06:16:39;2.72;;;0.95;;
72408;SDS011;60402;48.082;11.628;2024-03-06T06:19:27;2.28;;;0.90;;
72408;SDS011;60402;48.082;11.628;2024-03-06T06:22:13;2.65;;;1.13;;
72408;SDS011;60402;48.082;11.628;2024-03-06T06:24:59;3.45;;;1.10;;
72408;SDS011;60402;48.082;11.628;2024-03-06T06:27:46;2.33;;;1.20;;
72408;SDS011;60402;48.082;11.628;2024-03-06T06:30:33;1.58;;;0.73;;
72408;SDS011;60402;48.082;11.628;2024-03-06T06:33:19;2.38;;;1.00;;
72408;SDS011;60402;48.082;11.628;2024-03-06T06:36:06;2.67;;;1.10;;
72408;SDS011;60402;48.082;11.628;2024-03-06T06:38:52;2.70;;;1.10;;
72408;SDS011;60402;48.082;11.628;2024-03-06T06:41:38;2.58;;;1.30;;
72408;SDS011;60402;48.082;11.628;2024-03-06T06:44:24;2.35;;;1.02;;
72408;SDS011;60402;48.082;11.628;2024-03-06T06:47:09;3.05;;;1.25;;
72408;SDS011;60402;48.082;11.628;2024-03-06T06:49:55;3.75;;;1.27;;
72408;SDS011;60402;48.082;11.628;2024-03-06T06:52:41;12.68;;;8.27;;
72408;SDS011;60402;48.082;11.628;2024-03-06T06:55:27;48.25;;;20.95;;
72408;SDS011;60402;48.082;11.628;2024-03-06T06:58:13;19.58;;;12.23;;
72408;SDS011;60402;48.082;11.628;2024-03-06T07:00:58;5.10;;;2.65;;
72408;SDS011;60402;48.082;11.628;2024-03-06T07:03:45;4.28;;;1.40;;
72408;SDS011;60402;48.082;11.628;2024-03-06T07:06:32;13.45;;;4.40;;
72408;SDS011;60402;48.082;11.628;2024-03-06T07:09:18;4.72;;;1.58;;
72408;SDS011;60402;48.082;11.628;2024-03-06T07:12:04;4.88;;;1.70;;
72408;SDS011;60402;48.082;11.628;2024-03-06T07:14:50;8.48;;;2.63;;
72408;SDS011;60402;48.082;11.628;2024-03-06T07:17:36;16.65;;;5.82;;
72408;SDS011;60402;48.082;11.628;2024-03-06T07:20:21;22.42;;;7.75;;
72408;SDS011;60402;48.082;11.628;2024-03-06T07:23:07;24.85;;;8.30;;
72408;SDS011;60402;48.082;11.628;2024-03-06T07:25:53;20.77;;;5.55;;
72408;SDS011;60402;48.082;11.628;2024-03-06T07:28:38;18.73;;;5.57;;
72408;SDS011;60402;48.082;11.628;2024-03-06T07:31:24;44.55;;;12.07;;
72408;SDS011;60402;48.082;11.628;2024-03-06T07:34:10;36.47;;;11.20;;
72408;SDS011;60402;48.082;11.628;2024-03-06T07:36:56;33.72;;;10.05;;
72408;SDS011;60402;48.082;11.628;2024-03-06T07:39:42;35.15;;;10.65;;
72408;SDS011;60402;48.082;11.628;2024-03-06T07:42:27;9.63;;;3.47;;
72408;SDS011;60402;48.082;11.628;2024-03-06T07:45:13;5.75;;;1.63;;
72408;SDS011;60402;48.082;11.628;2024-03-06T07:47:59;3.00;;;1.27;;
72408;SDS011;60402;48.082;11.628;2024-03-06T07:50:44;2.47;;;1.15;;
72408;SDS011;60402;48.082;11.628;2024-03-06T07:53:30;2.20;;;1.15;;
72408;SDS011;60402;48.082;11.628;2024-03-06T07:56:16;3.17;;;1.13;;
72408;SDS011;60402;48.082;11.628;2024-03-06T07:59:02;2.28;;;1.25;;
72408;SDS011;60402;48.082;11.628;2024-03-06T08:01:49;2.55;;;1.17;;
72408;SDS011;60402;48.082;11.628;2024-03-06T08:04:35;4.63;;;1.30;;
72408;SDS011;60402;48.082;11.628;2024-03-06T08:07:21;2.75;;;1.23;;
72408;SDS011;60402;48.082;11.628;2024-03-06T08:10:07;3.05;;;1.10;;
72408;SDS011;60402;48.082;11.628;2024-03-06T08:12:58;2.88;;;1.60;;
72408;SDS011;60402;48.082;11.628;2024-03-06T08:15:44;3.50;;;1.60;;
72408;SDS011;60402;48.082;11.628;2024-03-06T08:18:30;5.22;;;2.92;;
72408;SDS011;60402;48.082;11.628;2024-03-06T08:21:16;2.78;;;1.17;;
72408;SDS011;60402;48.082;11.628;2024-03-06T08:24:02;4.25;;;1.27;;
72408;SDS011;60402;48.082;11.628;2024-03-06T08:26:47;3.67;;;1.15;;
72408;SDS011;60402;48.082;11.628;2024-03-06T08:29:34;3.15;;;1.30;;
72408;SDS011;60402;48.082;11.628;2024-03-06T08:32:20;1.98;;;0.95;;
72408;SDS011;60402;48.082;11.628;2024-03-06T08:35:06;1.85;;;0.80;;
72408;SDS011;60402;48.082;11.628;2024-03-06T08:37:57;2.35;;;1.05;;
72408;SDS011;60402;48.082;11.628;2024-03-06T08:40:42;2.17;;;0.98;;
72408;SDS011;60402;48.082;11.628;2024-03-06T08:43:30;3.15;;;1.35;;
72408;SDS011;60402;48.082;11.628;2024-03-06T08:46:16;3.55;;;1.10;;
72408;SDS011;60402;48.082;11.628;2024-03-06T08:49:02;3.50;;;1.00;;
72408;SDS011;60402;48.082;11.628;2024-03-06T08:51:47;1.77;;;1.08;;
72408;SDS011;60402;48.082;11.628;2024-03-06T08:54:33;2.42;;;0.98;;
72408;SDS011;60402;48.082;11.628;2024-03-06T08:57:19;2.92;;;1.00;;
72408;SDS011;60402;48.082;11.628;2024-03-06T09:00:07;2.97;;;1.30;;
72408;SDS011;60402;48.082;11.628;2024-03-06T09:02:56;4.22;;;1.80;;
72408;SDS011;60402;48.082;11.628;2024-03-06T09:05:41;3.38;;;1.50;;
72408;SDS011;60402;48.082;11.628;2024-03-06T09:08:27;4.88;;;1.83;;
72408;SDS011;60402;48.082;11.628;2024-03-06T09:11:13;4.22;;;1.88;;
72408;SDS011;60402;48.082;11.628;2024-03-06T09:13:58;7.43;;;3.33;;
72408;SDS011;60402;48.082;11.628;2024-03-06T09:16:44;6.50;;;2.60;;
72408;SDS011;60402;48.082;11.628;2024-03-06T09:19:30;6.45;;;3.63;;
72408;SDS011;60402;48.082;11.628;2024-03-06T09:22:16;7.00;;;3.30;;
72408;SDS011;60402;48.082;11.628;2024-03-06T09:25:03;4.20;;;2.10;;
72408;SDS011;60402;48.082;11.628;2024-03-06T09:27:49;5.43;;;3.15;;
72408;SDS011;60402;48.082;11.628;2024-03-06T09:30:35;3.92;;;1.92;;
72408;SDS011;60402;48.082;11.628;2024-03-06T09:33:20;3.67;;;1.85;;
72408;SDS011;60402;48.082;11.628;2024-03-06T09:36:06;3.35;;;1.73;;
72408;SDS011;60402;48.082;11.628;2024-03-06T09:38:55;2.38;;;1.10;;
72408;SDS011;60402;48.082;11.628;2024-03-06T09:41:41;3.25;;;1.35;;
72408;SDS011;60402;48.082;11.628;2024-03-06T09:44:26;4.05;;;2.28;;
72408;SDS011;60402;48.082;11.628;2024-03-06T09:47:13;3.85;;;2.03;;
72408;SDS011;60402;48.082;11.628;2024-03-06T09:50:02;3.55;;;1.40;;
72408;SDS011;60402;48.082;11.628;2024-03-06T09:52:48;4.43;;;1.70;;
72408;SDS011;60402;48.082;11.628;2024-03-06T09:55:37;5.47;;;2.10;;
72408;SDS011;60402;48.082;11.628;2024-03-06T09:58:24;3.22;;;1.52;;
72408;SDS011;60402;48.082;11.628;2024-03-06T10:01:10;3.53;;;1.17;;
72408;SDS011;60402;48.082;11.628;2024-03-06T10:03:58;3.20;;;1.42;;
72408;SDS011;60402;48.082;11.628;2024-03-06T10:06:44;2.65;;;1.02;;
72408;SDS011;60402;48.082;11.628;2024-03-06T10:09:31;5.30;;;1.80;;
72408;SDS011;60402;48.082;11.628;2024-03-06T10:12:18;3.50;;;1.30;;
72408;SDS011;60402;48.082;11.628;2024-03-06T10:15:04;3.42;;;1.42;;
72408;SDS011;60402;48.082;11.628;2024-03-06T10:17:50;4.90;;;1.67;;
72408;SDS011;60402;48.082;11.628;2024-03-06T10:20:36;4.47;;;1.90;;
72408;SDS011;60402;48.082;11.628;2024-03-06T10:23:22;3.60;;;1.58;;
72408;SDS011;60402;48.082;11.628;2024-03-06T10:26:08;3.67;;;1.30;;
72408;SDS011;60402;48.082;11.628;2024-03-06T10:28:54;2.75;;;1.33;;
72408;SDS011;60402;48.082;11.628;2024-03-06T10:31:40;2.72;;;1.33;;
72408;SDS011;60402;48.082;11.628;2024-03-06T10:34:27;3.60;;;1.40;;
72408;SDS011;60402;48.082;11.628;2024-03-06T10:37:14;4.47;;;1.60;;
72408;SDS011;60402;48.082;11.628;2024-03-06T10:40:01;3.33;;;1.70;;
72408;SDS011;60402;48.082;11.628;2024-03-06T10:42:51;3.47;;;1.50;;
72408;SDS011;60402;48.082;11.628;2024-03-06T10:49:01;3.05;;;1.30;;
72408;SDS011;60402;48.082;11.628;2024-03-06T10:51:48;4.38;;;1.70;;
72408;SDS011;60402;48.082;11.628;2024-03-06T10:54:35;3.00;;;1.30;;
72408;SDS011;60402;48.082;11.628;2024-03-06T10:57:24;3.42;;;1.60;;
72408;SDS011;60402;48.082;11.628;2024-03-06T11:00:11;2.90;;;1.48;;
72408;SDS011;60402;48.082;11.628;2024-03-06T11:03:04;3.63;;;1.50;;
72408;SDS011;60402;48.082;11.628;2024-03-06T11:05:53;3.22;;;1.52;;
72408;SDS011;60402;48.082;11.628;2024-03-06T11:08:39;4.57;;;1.95;;
72408;SDS011;60402;48.082;11.628;2024-03-06T11:11:24;2.75;;;1.20;;
72408;SDS011;60402;48.082;11.628;2024-03-06T11:14:10;5.47;;;2.53;;
72408;SDS011;60402;48.082;11.628;2024-03-06T11:16:57;3.55;;;1.30;;
72408;SDS011;60402;48.082;11.628;2024-03-06T11:28:43;3.65;;;1.38;;
72408;SDS011;60402;48.082;11.628;2024-03-06T11:31:35;3.60;;;1.50;;
72408;SDS011;60402;48.082;11.628;2024-03-06T11:34:24;4.57;;;1.50;;
72408;SDS011;60402;48.082;11.628;2024-03-06T11:37:09;2.42;;;1.40;;
72408;SDS011;60402;48.082;11.628;2024-03-06T11:39:59;2.17;;;1.25;;
72408;SDS011;60402;48.082;11.628;2024-03-06T11:42:46;2.45;;;1.40;;
72408;SDS011;60402;48.082;11.628;2024-03-06T11:45:42;4.78;;;1.63;;
72408;SDS011;60402;48.082;11.628;2024-03-06T11:48:29;2.75;;;1.40;;
72408;SDS011;60402;48.082;11.628;2024-03-06T11:51:15;2.90;;;1.42;;
72408;SDS011;60402;48.082;11.628;2024-03-06T11:54:02;2.95;;;1.40;;
72408;SDS011;60402;48.082;11.628;2024-03-06T11:59:39;3.58;;;1.40;;
72408;SDS011;60402;48.082;11.628;2024-03-06T12:02:24;4.18;;;1.67;;
72408;SDS011;60402;48.082;11.628;2024-03-06T12:05:10;4.60;;;1.70;;
72408;SDS011;60402;48.082;11.628;2024-03-06T12:07:56;3.60;;;1.42;;
72408;SDS011;60402;48.082;11.628;2024-03-06T12:10:42;4.47;;;1.63;;
72408;SDS011;60402;48.082;11.628;2024-03-06T12:13:28;3.72;;;1.52;;
72408;SDS011;60402;48.082;11.628;2024-03-06T12:16:13;4.75;;;2.03;;
72408;SDS011;60402;48.082;11.628;2024-03-06T12:18:59;3.88;;;1.63;;
72408;SDS011;60402;48.082;11.628;2024-03-06T12:21:46;3.88;;;1.65;;
72408;SDS011;60402;48.082;11.628;2024-03-06T12:24:33;4.10;;;1.75;;
72408;SDS011;60402;48.082;11.628;2024-03-06T12:27:21;4.05;;;1.73;;
72408;SDS011;60402;48.082;11.628;2024-03-06T12:30:08;2.85;;;1.27;;
72408;SDS011;60402;48.082;11.628;2024-03-06T12:33:00;4.70;;;2.00;;
72408;SDS011;60402;48.082;11.628;2024-03-06T12:35:59;3.80;;;1.75;;
72408;SDS011;60402;48.082;11.628;2024-03-06T12:38:58;3.70;;;1.60;;
72408;SDS011;60402;48.082;11.628;2024-03-06T12:41:45;2.78;;;1.45;;
72408;SDS011;60402;48.082;11.628;2024-03-06T12:44:30;3.60;;;1.58;;
72408;SDS011;60402;48.082;11.628;2024-03-06T12:47:16;4.15;;;2.00;;
72408;SDS011;60402;48.082;11.628;2024-03-06T12:50:02;7.40;;;2.58;;
72408;SDS011;60402;48.082;11.628;2024-03-06T12:52:47;5.22;;;2.53;;
72408;SDS011;60402;48.082;11.628;2024-03-06T12:55:33;3.35;;;1.33;;
72408;SDS011;60402;48.082;11.628;2024-03-06T12:58:19;2.92;;;1.35;;
72408;SDS011;60402;48.082;11.628;2024-03-06T13:01:04;4.35;;;1.80;;
72408;SDS011;60402;48.082;11.628;2024-03-06T13:03:50;3.95;;;1.85;;
72408;SDS011;60402;48.082;11.628;2024-03-06T13:06:36;3.08;;;1.48;;
72408;SDS011;60402;48.082;11.628;2024-03-06T13:09:22;4.07;;;1.75;;
72408;SDS011;60402;48.082;11.628;2024-03-06T13:12:08;4.20;;;2.20;;
72408;SDS011;60402;48.082;11.628;2024-03-06T13:14:54;4.45;;;2.28;;
72408;SDS011;60402;48.082;11.628;2024-03-06T13:17:40;4.65;;;2.30;;
72408;SDS011;60402;48.082;11.628;2024-03-06T13:20:25;4.20;;;1.55;;
72408;SDS011;60402;48.082;11.628;2024-03-06T13:23:11;4.97;;;1.60;;
72408;SDS011;60402;48.082;11.628;2024-03-06T13:25:57;3.28;;;1.58;;
72408;SDS011;60402;48.082;11.628;2024-03-06T13:28:44;2.80;;;1.33;;
72408;SDS011;60402;48.082;11.628;2024-03-06T13:31:29;4.25;;;1.58;;
72408;SDS011;60402;48.082;11.628;2024-03-06T13:34:18;3.88;;;1.70;;
72408;SDS011;60402;48.082;11.628;2024-03-06T13:37:04;8.10;;;2.40;;
72408;SDS011;60402;48.082;11.628;2024-03-06T13:39:51;5.18;;;2.28;;
72408;SDS011;60402;48.082;11.628;2024-03-06T13:42:38;4.47;;;1.92;;
72408;SDS011;60402;48.082;11.628;2024-03-06T13:45:25;7.03;;;2.25;;
72408;SDS011;60402;48.082;11.628;2024-03-06T13:48:13;4.18;;;1.83;;
72408;SDS011;60402;48.082;11.628;2024-03-06T13:51:00;4.15;;;1.80;;
72408;SDS011;60402;48.082;11.628;2024-03-06T13:53:46;5.57;;;2.17;;
72408;SDS011;60402;48.082;11.628;2024-03-06T13:56:32;4.00;;;2.25;;
72408;SDS011;60402;48.082;11.628;2024-03-06T13:59:17;5.43;;;2.13;;
72408;SDS011;60402;48.082;11.628;2024-03-06T14:02:03;4.47;;;1.73;;
72408;SDS011;60402;48.082;11.628;2024-03-06T14:04:49;3.53;;;1.50;;
72408;SDS011;60402;48.082;11.628;2024-03-06T14:07:34;4.35;;;1.83;;
72408;SDS011;60402;48.082;11.628;2024-03-06T14:10:20;3.80;;;1.75;;
72408;SDS011;60402;48.082;11.628;2024-03-06T14:13:08;6.50;;;2.15;;
72408;SDS011;60402;48.082;11.628;2024-03-06T14:15:56;4.03;;;1.67;;
72408;SDS011;60402;48.082;11.628;2024-03-06T14:18:45;4.78;;;2.17;;
72408;SDS011;60402;48.082;11.628;2024-03-06T14:21:31;4.68;;;2.28;;
72408;SDS011;60402;48.082;11.628;2024-03-06T14:24:17;5.22;;;2.08;;
72408;SDS011;60402;48.082;11.628;2024-03-06T14:27:03;3.78;;;1.63;;
72408;SDS011;60402;48.082;11.628;2024-03-06T14:29:51;3.88;;;1.58;;
72408;SDS011;60402;48.082;11.628;2024-03-06T14:32:39;2.90;;;1.33;;
72408;SDS011;60402;48.082;11.628;2024-03-06T14:35:25;2.75;;;1.38;;
72408;SDS011;60402;48.082;11.628;2024-03-06T14:38:11;4.00;;;1.33;;
72408;SDS011;60402;48.082;11.628;2024-03-06T14:40:58;3.95;;;1.83;;
72408;SDS011;60402;48.082;11.628;2024-03-06T14:43:44;3.50;;;1.52;;
72408;SDS011;60402;48.082;11.628;2024-03-06T14:46:30;2.83;;;1.33;;
72408;SDS011;60402;48.082;11.628;2024-03-06T14:49:16;2.83;;;1.52;;
72408;SDS011;60402;48.082;11.628;2024-03-06T14:52:01;4.00;;;1.60;;
72408;SDS011;60402;48.082;11.628;2024-03-06T14:54:47;4.00;;;1.70;;
72408;SDS011;60402;48.082;11.628;2024-03-06T14:57:33;3.03;;;1.50;;
72408;SDS011;60402;48.082;11.628;2024-03-06T15:00:19;4.43;;;1.95;;
72408;SDS011;60402;48.082;11.628;2024-03-06T15:03:06;5.00;;;2.17;;
72408;SDS011;60402;48.082;11.628;2024-03-06T15:05:52;3.13;;;1.60;;
72408;SDS011;60402;48.082;11.628;2024-03-06T15:08:39;3.67;;;1.40;;
72408;SDS011;60402;48.082;11.628;2024-03-06T15:11:25;3.75;;;1.50;;
72408;SDS011;60402;48.082;11.628;2024-03-06T15:14:11;3.50;;;1.30;;
72408;SDS011;60402;48.082;11.628;2024-03-06T15:16:56;3.58;;;1.55;;
72408;SDS011;60402;48.082;11.628;2024-03-06T15:19:42;4.90;;;1.45;;
72408;SDS011;60402;48.082;11.628;2024-03-06T15:22:28;3.30;;;1.60;;
72408;SDS011;60402;48.082;11.628;2024-03-06T15:25:14;3.65;;;1.58;;
72408;SDS011;60402;48.082;11.628;2024-03-06T15:27:59;3.00;;;1.27;;
72408;SDS011;60402;48.082;11.628;2024-03-06T15:30:45;3.05;;;1.30;;
72408;SDS011;60402;48.082;11.628;2024-03-06T15:33:30;5.03;;;2.10;;
72408;SDS011;60402;48.082;11.628;2024-03-06T15:36:16;4.82;;;2.45;;
72408;SDS011;60402;48.082;11.628;2024-03-06T15:39:03;4.45;;;1.70;;
72408;SDS011;60402;48.082;11.628;2024-03-06T15:44:37;3.28;;;1.52;;
72408;SDS011;60402;48.082;11.628;2024-03-06T15:47:23;3.17;;;1.60;;
72408;SDS011;60402;48.082;11.628;2024-03-06T15:50:09;3.83;;;1.58;;
72408;SDS011;60402;48.082;11.628;2024-03-06T15:52:56;3.63;;;1.80;;
72408;SDS011;60402;48.082;11.628;2024-03-06T15:55:41;3.85;;;1.48;;
72408;SDS011;60402;48.082;11.628;2024-03-06T15:58:27;3.78;;;1.70;;
72408;SDS011;60402;48.082;11.628;2024-03-06T16:01:13;2.50;;;1.48;;
72408;SDS011;60402;48.082;11.628;2024-03-06T16:03:59;3.58;;;1.48;;
72408;SDS011;60402;48.082;11.628;2024-03-06T16:06:45;3.90;;;1.85;;
72408;SDS011;60402;48.082;11.628;2024-03-06T16:09:30;3.33;;;1.67;;
72408;SDS011;60402;48.082;11.628;2024-03-06T16:12:16;2.80;;;1.38;;
72408;SDS011;60402;48.082;11.628;2024-03-06T16:15:02;3.83;;;1.48;;
72408;SDS011;60402;48.082;11.628;2024-03-06T16:17:51;3.33;;;1.42;;
72408;SDS011;60402;48.082;11.628;2024-03-06T16:20:37;3.45;;;1.63;;
72408;SDS011;60402;48.082;11.628;2024-03-06T16:23:23;4.32;;;1.98;;
72408;SDS011;60402;48.082;11.628;2024-03-06T16:26:09;3.50;;;1.58;;
72408;SDS011;60402;48.082;11.628;2024-03-06T16:28:54;4.05;;;1.92;;
72408;SDS011;60402;48.082;11.628;2024-03-06T16:31:40;4.05;;;1.73;;
72408;SDS011;60402;48.082;11.628;2024-03-06T16:34:26;4.65;;;1.85;;
72408;SDS011;60402;48.082;11.628;2024-03-06T16:37:11;4.93;;;2.20;;
72408;SDS011;60402;48.082;11.628;2024-03-06T16:39:57;3.92;;;1.80;;